createdAt,value
2019-01-09T00:00:49.272Z,97.40
2019-01-09T00:03:17.568Z,96.50
2019-01-09T00:05:45.660Z,97.90
2019-01-09T00:08:13.713Z,97.50
2019-01-09T00:10:42.110Z,98.00
2019-01-09T00:13:10.390Z,98.00
2019-01-09T00:15:38.665Z,97.50
2019-01-09T00:18:06.791Z,97.00
2019-01-09T00:20:35.950Z,97.50
2019-01-09T00:23:04.280Z,98.30
2019-01-09T00:25:32.481Z,97.70
2019-01-09T00:28:00.586Z,97.90
2019-01-09T00:30:28.743Z,97.20
2019-01-09T00:32:57.029Z,97.70
2019-01-09T00:35:25.297Z,96.60
2019-01-09T00:37:53.677Z,97.40
2019-01-09T00:40:21.816Z,97.30
2019-01-09T00:42:50.187Z,97.10
2019-01-09T00:45:18.924Z,96.90
2019-01-09T00:47:46.997Z,97.00
2019-01-09T00:50:15.567Z,97.30
2019-01-09T00:52:43.745Z,97.30
2019-01-09T00:55:12.072Z,96.80
2019-01-09T00:57:40.342Z,96.00
2019-01-09T01:00:14.820Z,95.70
2019-01-09T01:03:32.395Z,97.10
2019-01-09T01:07:02.100Z,96.60
2019-01-09T01:10:54.618Z,97.10
2019-01-09T01:14:12.327Z,96.10
2019-01-09T01:18:05.790Z,96.00
2019-01-09T01:20:48.205Z,96.70
2019-01-09T01:24:15.954Z,96.50
2019-01-09T01:27:15.842Z,95.80
2019-01-09T01:30:36.216Z,95.90
2019-01-09T01:33:50.073Z,95.90
2019-01-09T01:36:59.449Z,96.30
2019-01-09T01:40:16.903Z,95.00
2019-01-09T01:43:22.634Z,95.40
2019-01-09T01:47:07.441Z,95.60
2019-01-09T01:50:40.641Z,95.50
2019-01-09T01:53:54.070Z,96.20
2019-01-09T01:57:12.147Z,96.00
2019-01-09T02:00:33.753Z,95.50
2019-01-09T02:03:54.125Z,96.00
2019-01-09T02:07:24.032Z,95.70
2019-01-09T02:10:51.280Z,95.00
2019-01-09T02:14:29.736Z,96.00
2019-01-09T02:18:12.292Z,95.10
2019-01-09T02:21:31.442Z,94.60
2019-01-09T02:24:57.129Z,95.00
2019-01-09T02:28:18.664Z,94.80
2019-01-09T02:31:18.452Z,95.10
2019-01-09T02:33:46.619Z,94.50
2019-01-09T02:36:14.767Z,94.50
2019-01-09T02:38:42.967Z,94.90
2019-01-09T02:41:11.099Z,95.30
2019-01-09T02:43:39.256Z,95.40
2019-01-09T02:46:07.464Z,96.00
2019-01-09T02:48:35.617Z,94.60
2019-01-09T02:51:04.007Z,94.70
2019-01-09T02:53:32.178Z,95.30
2019-01-09T02:56:00.248Z,95.00
2019-01-09T02:58:28.666Z,94.80
2019-01-09T03:00:58.337Z,94.30
2019-01-09T03:03:26.545Z,95.00
2019-01-09T03:05:54.657Z,95.30
2019-01-09T03:08:22.958Z,94.70
2019-01-09T03:10:51.731Z,94.60
2019-01-09T03:13:19.884Z,94.20
2019-01-09T03:15:48.083Z,94.70
2019-01-09T03:18:16.181Z,95.00
2019-01-09T03:20:47.748Z,94.00
2019-01-09T03:23:15.867Z,93.70
2019-01-09T03:25:43.958Z,94.10
2019-01-09T03:28:12.235Z,94.20
2019-01-09T03:30:40.428Z,94.80
2019-01-09T03:33:08.636Z,93.70
2019-01-09T03:35:36.777Z,94.30
2019-01-09T03:38:04.923Z,95.10
2019-01-09T03:40:33.057Z,94.90
2019-01-09T03:43:01.153Z,93.60
2019-01-09T03:45:29.463Z,93.70
2019-01-09T03:47:57.602Z,94.70
2019-01-09T03:50:25.862Z,94.40
2019-01-09T03:52:53.970Z,94.20
2019-01-09T03:55:22.229Z,94.30
2019-01-09T03:57:50.337Z,94.30
2019-01-09T04:00:18.575Z,94.10
2019-01-09T04:02:46.675Z,93.80
2019-01-09T04:05:14.715Z,93.90
2019-01-09T04:07:42.821Z,94.20
2019-01-09T04:10:10.975Z,94.10
2019-01-09T04:12:39.128Z,94.00
2019-01-09T04:15:08.169Z,93.60
2019-01-09T04:17:37.272Z,94.30
2019-01-09T04:20:05.797Z,94.00
2019-01-09T04:22:33.890Z,93.80
2019-01-09T04:25:02.133Z,93.70
2019-01-09T04:27:30.339Z,93.30
2019-01-09T04:29:58.546Z,94.30
2019-01-09T04:32:26.689Z,93.10
2019-01-09T04:34:54.761Z,93.50
2019-01-09T04:37:22.935Z,93.80
2019-01-09T04:39:51.050Z,93.90
2019-01-09T04:42:19.195Z,94.00
2019-01-09T04:44:48.371Z,94.00
2019-01-09T04:47:16.464Z,94.00
2019-01-09T04:49:44.536Z,93.60
2019-01-09T04:52:12.731Z,93.90
2019-01-09T04:54:40.815Z,93.90
2019-01-09T04:57:08.986Z,94.10
2019-01-09T04:59:37.191Z,94.40
2019-01-09T05:02:05.350Z,93.60
2019-01-09T05:04:33.513Z,93.80
2019-01-09T05:07:01.560Z,94.20
2019-01-09T05:09:29.655Z,93.40
2019-01-09T05:11:57.890Z,94.00
2019-01-09T05:14:26.063Z,94.20
2019-01-09T05:16:54.147Z,93.80
2019-01-09T05:19:22.342Z,94.20
2019-01-09T05:21:50.418Z,94.00
2019-01-09T05:24:18.622Z,94.40
2019-01-09T05:26:46.863Z,93.60
2019-01-09T05:29:14.969Z,93.80
2019-01-09T05:31:43.183Z,93.90
2019-01-09T05:34:11.444Z,94.10
2019-01-09T05:36:39.670Z,94.30
2019-01-09T05:39:08.619Z,94.00
2019-01-09T05:41:36.850Z,94.20
2019-01-09T05:44:05.081Z,94.80
2019-01-09T05:46:33.228Z,94.50
2019-01-09T05:49:01.309Z,94.80
2019-01-09T05:51:29.449Z,94.30
2019-01-09T05:53:57.584Z,94.00
2019-01-09T05:56:25.718Z,95.30
2019-01-09T05:58:53.755Z,94.80
2019-01-09T06:01:21.903Z,95.70
2019-01-09T06:03:50.010Z,94.50
2019-01-09T06:06:18.109Z,95.00
2019-01-09T06:08:46.191Z,95.10
2019-01-09T06:11:14.858Z,95.10
2019-01-09T06:13:43.050Z,96.30
2019-01-09T06:16:11.738Z,95.80
2019-01-09T06:18:40.118Z,95.60
2019-01-09T06:21:08.500Z,95.10
2019-01-09T06:23:36.667Z,95.40
2019-01-09T06:26:04.761Z,96.10
2019-01-09T06:28:32.927Z,96.10
2019-01-09T06:31:00.977Z,96.10
2019-01-09T06:33:29.156Z,95.80
2019-01-09T06:35:57.295Z,95.80
2019-01-09T06:38:25.468Z,95.90
2019-01-09T06:40:53.536Z,96.40
2019-01-09T06:43:21.887Z,96.50
2019-01-09T06:45:50.121Z,96.50
2019-01-09T06:48:18.413Z,96.00
2019-01-09T06:50:46.504Z,95.90
2019-01-09T06:53:14.607Z,96.20
2019-01-09T06:55:42.910Z,96.40
2019-01-09T06:58:10.956Z,95.90
2019-01-09T07:00:39.220Z,96.70
2019-01-09T07:03:08.713Z,96.00
2019-01-09T07:05:36.973Z,95.40
2019-01-09T07:08:05.116Z,95.90
2019-01-09T07:10:33.195Z,94.70
2019-01-09T07:13:01.283Z,95.40
2019-01-09T07:15:29.402Z,95.30
2019-01-09T07:17:57.625Z,95.20
2019-01-09T07:20:25.708Z,95.80
2019-01-09T07:22:53.859Z,95.50
2019-01-09T07:25:21.933Z,95.10
2019-01-09T07:27:50.087Z,95.30
2019-01-09T07:30:18.486Z,95.10
2019-01-09T07:32:46.590Z,95.10
2019-01-09T07:35:14.653Z,95.00
2019-01-09T07:37:45.272Z,95.00
2019-01-09T07:40:13.063Z,95.60
2019-01-09T07:42:41.390Z,95.20
2019-01-09T07:45:10.073Z,95.90
2019-01-09T07:47:38.600Z,95.50
2019-01-09T07:50:07.424Z,95.50
2019-01-09T07:52:35.747Z,95.50
2019-01-09T07:55:04.064Z,96.00
2019-01-09T07:57:32.191Z,96.50
2019-01-09T08:00:00.412Z,95.50
2019-01-09T08:02:28.549Z,96.00
2019-01-09T08:04:56.655Z,96.20
2019-01-09T08:07:25.081Z,96.70
2019-01-09T08:09:53.355Z,96.60
2019-01-09T08:12:21.686Z,97.20
2019-01-09T08:14:50.318Z,98.40
2019-01-09T08:17:18.406Z,97.50
2019-01-09T08:19:46.771Z,97.70
2019-01-09T08:22:14.916Z,98.10
2019-01-09T08:24:43.321Z,97.20
2019-01-09T08:27:11.588Z,98.20
2019-01-09T08:29:40.739Z,97.20
2019-01-09T08:32:08.989Z,97.30
2019-01-09T08:34:37.428Z,97.00
2019-01-09T08:37:06.687Z,97.50
2019-01-09T08:39:35.122Z,97.80
2019-01-09T08:42:03.358Z,98.50
2019-01-09T08:44:31.478Z,99.00
2019-01-09T08:47:02.129Z,99.20
2019-01-09T08:49:30.522Z,98.90
2019-01-09T08:51:58.618Z,98.50
2019-01-09T08:54:26.742Z,99.20
2019-01-09T08:56:54.852Z,99.20
2019-01-09T08:59:23.158Z,98.90
2019-01-09T09:01:51.240Z,99.10
2019-01-09T09:04:19.608Z,99.30
2019-01-09T09:06:48.031Z,99.90
2019-01-09T09:09:17.432Z,99.70
2019-01-09T09:11:45.486Z,99.90
2019-01-09T09:14:13.579Z,99.90
2019-01-09T09:16:41.906Z,99.90
2019-01-09T09:19:10.387Z,99.90
2019-01-09T09:21:38.767Z,99.90
2019-01-09T09:24:06.870Z,99.90
2019-01-09T09:26:35.218Z,99.90
2019-01-09T09:29:03.625Z,99.90
2019-01-09T09:31:32.232Z,99.90
2019-01-09T09:34:00.536Z,99.90
2019-01-09T09:36:28.741Z,99.90
2019-01-09T09:38:56.898Z,99.90
2019-01-09T09:41:25.075Z,99.90
2019-01-09T09:43:53.294Z,99.90
2019-01-09T09:46:21.424Z,99.90
2019-01-09T09:48:49.666Z,99.90
2019-01-09T09:51:17.786Z,99.90
2019-01-09T09:53:45.920Z,99.40
2019-01-09T09:56:14.015Z,99.10
2019-01-09T09:58:42.201Z,97.90
2019-01-09T10:01:10.777Z,97.40
2019-01-09T10:03:38.943Z,97.00
2019-01-09T10:06:07.219Z,97.20
2019-01-09T10:08:36.554Z,97.00
2019-01-09T10:11:05.901Z,97.60
2019-01-09T10:13:33.984Z,97.50
2019-01-09T10:16:02.340Z,97.60
2019-01-09T10:18:30.389Z,97.70
2019-01-09T10:20:59.095Z,98.30
2019-01-09T10:23:27.160Z,98.00
2019-01-09T10:25:55.615Z,97.90
2019-01-09T10:28:23.740Z,98.40
2019-01-09T10:30:53.040Z,99.00
2019-01-09T10:33:21.317Z,98.80
2019-01-09T10:35:49.606Z,99.20
2019-01-09T10:38:17.776Z,99.50
2019-01-09T10:40:46.052Z,99.70
2019-01-09T10:43:14.291Z,98.40
2019-01-09T10:45:42.407Z,98.00
2019-01-09T10:48:10.472Z,98.40
2019-01-09T10:50:38.690Z,97.50
2019-01-09T10:53:07.197Z,97.50
2019-01-09T10:55:35.660Z,97.30
2019-01-09T10:58:04.166Z,97.60
2019-01-09T11:00:32.608Z,97.30
2019-01-09T11:03:01.919Z,97.70
2019-01-09T11:05:30.161Z,97.00
2019-01-09T11:07:58.544Z,96.80
2019-01-09T11:10:26.597Z,97.50
2019-01-09T11:12:54.803Z,97.20
2019-01-09T11:15:22.992Z,96.60
2019-01-09T11:17:52.155Z,96.00
2019-01-09T11:20:21.455Z,96.30
2019-01-09T11:22:49.874Z,95.80
2019-01-09T11:25:25.490Z,95.20
2019-01-09T11:27:53.652Z,95.60
2019-01-09T11:30:21.702Z,95.30
2019-01-09T11:32:49.926Z,95.80
2019-01-09T11:35:22.270Z,94.90
2019-01-09T11:37:53.395Z,95.00
2019-01-09T11:40:22.033Z,94.60
2019-01-09T11:42:50.146Z,94.90
2019-01-09T11:45:18.992Z,94.90
2019-01-09T11:47:47.688Z,95.00
2019-01-09T11:50:17.165Z,94.70
2019-01-09T11:52:46.856Z,94.30
2019-01-09T11:55:15.602Z,94.60
2019-01-09T11:57:43.759Z,94.80
2019-01-09T12:00:24.128Z,94.80
2019-01-09T12:02:52.519Z,94.20
2019-01-09T12:05:20.630Z,94.80
2019-01-09T12:07:50.365Z,94.90
2019-01-09T12:10:29.508Z,94.90
2019-01-09T12:12:51.299Z,95.00
2019-01-09T12:15:19.917Z,94.90
2019-01-09T12:17:48.219Z,95.40
2019-01-09T12:20:18.944Z,95.50
2019-01-09T12:22:47.720Z,95.40
2019-01-09T12:25:16.516Z,95.40
2019-01-09T12:27:44.963Z,95.80
2019-01-09T12:30:28.229Z,96.30
2019-01-09T12:32:56.719Z,96.10
2019-01-09T12:35:25.806Z,96.40
2019-01-09T12:37:54.217Z,96.30
2019-01-09T12:40:22.291Z,96.60
2019-01-09T12:42:50.672Z,96.40
2019-01-09T12:45:19.063Z,96.50
2019-01-09T12:47:47.171Z,96.60
2019-01-09T12:50:22.459Z,97.30
2019-01-09T12:52:52.580Z,97.50
2019-01-09T12:55:20.630Z,97.50
2019-01-09T12:57:49.187Z,98.00
2019-01-09T13:00:24.616Z,98.40
2019-01-09T13:02:53.417Z,98.20
2019-01-09T13:05:22.497Z,98.40
2019-01-09T13:07:50.953Z,97.80
2019-01-09T13:10:19.257Z,98.10
2019-01-09T13:12:47.495Z,97.40
2019-01-09T13:15:15.558Z,97.70
2019-01-09T13:17:43.845Z,97.60
2019-01-09T13:20:13.415Z,98.10
2019-01-09T13:22:42.546Z,97.80
2019-01-09T13:25:14.121Z,97.60
2019-01-09T13:27:42.567Z,98.00
2019-01-09T13:30:22.349Z,96.80
2019-01-09T13:32:50.445Z,95.90
2019-01-09T13:35:18.610Z,96.20
2019-01-09T13:37:46.792Z,95.00
2019-01-09T13:40:17.830Z,94.60
2019-01-09T13:42:46.051Z,94.80
2019-01-09T13:45:17.299Z,94.70
2019-01-09T13:47:45.741Z,94.60
2019-01-09T13:50:14.960Z,94.20
2019-01-09T13:52:43.292Z,95.30
2019-01-09T13:55:13.153Z,95.20
2019-01-09T13:57:41.341Z,95.60
2019-01-09T14:00:19.668Z,95.50
2019-01-09T14:02:49.831Z,95.40
2019-01-09T14:05:18.253Z,95.70
2019-01-09T14:07:46.535Z,95.80
2019-01-09T14:10:18.335Z,96.20
2019-01-09T14:12:46.464Z,95.80
2019-01-09T14:15:17.346Z,96.40
2019-01-09T14:17:45.589Z,96.10
2019-01-09T14:20:14.212Z,96.10
2019-01-09T14:22:42.473Z,96.10
2019-01-09T14:25:11.295Z,96.10
2019-01-09T14:27:39.747Z,96.40
2019-01-09T14:30:19.449Z,96.40
2019-01-09T14:32:47.730Z,96.40
2019-01-09T14:35:16.653Z,96.60
2019-01-09T14:37:44.752Z,96.30
2019-01-09T14:40:14.304Z,96.70
2019-01-09T14:42:42.560Z,96.70
2019-01-09T14:45:11.868Z,96.50
2019-01-09T14:47:40.446Z,96.40
2019-01-09T14:50:15.256Z,96.30
2019-01-09T14:52:43.610Z,96.10
2019-01-09T14:55:12.799Z,96.30
2019-01-09T14:57:41.281Z,95.20
2019-01-09T15:00:14.791Z,95.40
2019-01-09T15:02:42.924Z,95.70
2019-01-09T15:05:11.604Z,95.70
2019-01-09T15:07:39.747Z,95.40
2019-01-09T15:10:14.107Z,95.40
2019-01-09T15:12:45.951Z,95.60
2019-01-09T15:15:15.114Z,95.40
2019-01-09T15:17:43.310Z,95.80
2019-01-09T15:20:14.777Z,96.00
2019-01-09T15:22:43.147Z,95.70
2019-01-09T15:25:11.660Z,95.90
2019-01-09T15:27:39.801Z,95.70
2019-01-09T15:30:22.211Z,95.80
2019-01-09T15:32:50.584Z,95.70
2019-01-09T15:35:18.752Z,96.30
2019-01-09T15:37:46.939Z,95.90
2019-01-09T15:40:18.806Z,95.80
2019-01-09T15:42:47.593Z,96.00
2019-01-09T15:45:15.742Z,95.70
2019-01-09T15:47:43.880Z,95.60
2019-01-09T15:50:15.970Z,95.40
2019-01-09T15:52:44.279Z,95.20
2019-01-09T15:55:14.671Z,95.20
2019-01-09T15:57:44.891Z,95.50
2019-01-09T16:00:20.757Z,95.90
2019-01-09T16:02:48.947Z,95.60
2019-01-09T16:05:17.105Z,95.70
2019-01-09T16:07:45.523Z,96.30
2019-01-09T16:10:14.953Z,95.70
2019-01-09T16:12:43.081Z,95.40
2019-01-09T16:15:13.731Z,95.50
2019-01-09T16:17:43.859Z,95.50
2019-01-09T16:20:16.719Z,95.20
2019-01-09T16:22:43.981Z,95.10
2019-01-09T16:25:13.792Z,95.30
2019-01-09T16:27:42.113Z,95.10
2019-01-09T16:30:43.268Z,94.90
2019-01-09T16:33:11.369Z,95.00
2019-01-09T16:35:39.476Z,95.00
2019-01-09T16:38:07.765Z,94.90
2019-01-09T16:40:35.944Z,95.00
2019-01-09T16:43:04.234Z,95.20
2019-01-09T16:45:33.589Z,95.00
2019-01-09T16:48:01.863Z,95.30
2019-01-09T16:50:31.235Z,95.70
2019-01-09T16:52:59.293Z,95.20
2019-01-09T16:55:27.973Z,95.50
2019-01-09T16:57:56.143Z,95.00
2019-01-09T17:00:27.245Z,95.40
2019-01-09T17:02:55.765Z,95.40
2019-01-09T17:05:23.921Z,95.20
2019-01-09T17:07:52.546Z,95.70
2019-01-09T17:10:20.735Z,95.50
2019-01-09T17:12:49.148Z,95.30
2019-01-09T17:15:17.858Z,95.80
2019-01-09T17:17:46.523Z,95.40
2019-01-09T17:20:18.205Z,95.50
2019-01-09T17:22:46.551Z,95.40
2019-01-09T17:25:15.186Z,95.30
2019-01-09T17:27:43.462Z,95.40
2019-01-09T17:30:19.301Z,95.70
2019-01-09T17:32:47.511Z,95.80
2019-01-09T17:35:15.746Z,95.50
2019-01-09T17:37:43.838Z,95.50
2019-01-09T17:40:13.576Z,95.70
2019-01-09T17:42:41.772Z,95.50
2019-01-09T17:45:10.254Z,95.50
2019-01-09T17:47:38.377Z,95.80
2019-01-09T17:50:15.090Z,95.70
2019-01-09T17:52:43.359Z,95.80
2019-01-09T17:55:11.859Z,95.70
2019-01-09T17:57:40.082Z,95.90
2019-01-09T18:00:15.527Z,95.70
2019-01-09T18:02:43.998Z,96.00
2019-01-09T18:05:12.591Z,95.70
2019-01-09T18:07:40.868Z,95.80
2019-01-09T18:10:14.808Z,95.70
2019-01-09T18:12:43.465Z,95.60
2019-01-09T18:15:12.918Z,95.80
2019-01-09T18:17:41.375Z,95.80
2019-01-09T18:20:12.203Z,95.70
2019-01-09T18:22:42.148Z,95.80
2019-01-09T18:25:15.525Z,95.80
2019-01-09T18:27:44.140Z,95.60
2019-01-09T18:30:35.401Z,95.50
2019-01-09T18:34:14.512Z,95.40
2019-01-09T18:37:37.790Z,95.60
2019-01-09T18:41:04.780Z,95.70
2019-01-09T18:43:51.606Z,95.70
2019-01-09T18:47:34.822Z,95.50
2019-01-09T18:50:46.193Z,95.70
2019-01-09T18:53:54.039Z,95.80
2019-01-09T18:56:23.803Z,96.00
2019-01-09T18:58:52.170Z,96.10
2019-01-09T19:01:20.291Z,96.30
2019-01-09T19:03:48.545Z,96.00
2019-01-09T19:06:16.746Z,96.10
2019-01-09T19:08:45.007Z,95.80
2019-01-09T19:11:13.145Z,96.10
2019-01-09T19:13:41.431Z,96.10
2019-01-09T19:16:10.191Z,96.20
2019-01-09T19:18:39.322Z,96.00
2019-01-09T19:21:07.606Z,96.10
2019-01-09T19:23:37.053Z,96.10
2019-01-09T19:26:05.320Z,96.10
2019-01-09T19:28:33.564Z,96.00
2019-01-09T19:31:02.038Z,96.10
2019-01-09T19:33:30.284Z,96.40
2019-01-09T19:35:59.796Z,96.60
2019-01-09T19:38:27.919Z,96.50
2019-01-09T19:40:56.141Z,96.30
2019-01-09T19:43:25.716Z,96.80
2019-01-09T19:45:53.909Z,96.70
2019-01-09T19:48:22.061Z,96.60
2019-01-09T19:50:50.544Z,96.70
2019-01-09T19:53:18.720Z,96.50
2019-01-09T19:55:46.917Z,96.40
2019-01-09T19:58:15.109Z,96.60
2019-01-09T20:00:43.235Z,96.80
2019-01-09T20:03:11.455Z,96.40
2019-01-09T20:05:39.612Z,96.60
2019-01-09T20:08:08.000Z,96.50
2019-01-09T20:10:36.236Z,96.50
2019-01-09T20:13:06.129Z,96.70
2019-01-09T20:15:35.739Z,96.90
2019-01-09T20:18:04.487Z,97.00
2019-01-09T20:20:32.597Z,96.90
2019-01-09T20:23:01.059Z,97.00
2019-01-09T20:25:29.761Z,96.70
2019-01-09T20:27:57.831Z,97.00
2019-01-09T20:30:29.260Z,96.80
2019-01-09T20:32:57.358Z,96.10
2019-01-09T20:35:25.509Z,95.90
2019-01-09T20:37:53.660Z,95.70
2019-01-09T20:40:22.001Z,96.00
2019-01-09T20:42:50.074Z,96.00
2019-01-09T20:45:19.086Z,96.10
2019-01-09T20:47:47.500Z,96.30
2019-01-09T20:50:23.410Z,95.70
2019-01-09T20:52:51.919Z,95.70
2019-01-09T20:55:20.532Z,95.80
2019-01-09T20:57:49.592Z,96.00
2019-01-09T21:00:27.023Z,96.10
2019-01-09T21:03:01.979Z,96.20
2019-01-09T21:05:34.479Z,96.40
2019-01-09T21:08:03.712Z,96.30
2019-01-09T21:10:31.794Z,96.60
2019-01-09T21:13:00.717Z,96.70
2019-01-09T21:15:29.178Z,97.10
2019-01-09T21:17:57.456Z,97.40
2019-01-09T21:20:25.551Z,97.00
2019-01-09T21:22:55.137Z,97.20
2019-01-09T21:25:23.258Z,97.10
2019-01-09T21:27:51.485Z,97.00
2019-01-09T21:30:22.735Z,97.10
2019-01-09T21:32:52.570Z,97.40
2019-01-09T21:35:22.575Z,97.70
2019-01-09T21:37:50.775Z,97.80
2019-01-09T21:40:27.583Z,97.80
2019-01-09T21:42:55.862Z,97.50
2019-01-09T21:45:24.989Z,97.50
2019-01-09T21:47:53.386Z,97.50
2019-01-09T21:50:24.089Z,97.60
2019-01-09T21:52:52.567Z,97.90
2019-01-09T21:55:21.234Z,98.10
2019-01-09T21:57:49.362Z,98.10
2019-01-09T22:00:23.839Z,98.30
2019-01-09T22:02:52.483Z,98.50
2019-01-09T22:05:23.137Z,98.20
2019-01-09T22:07:51.572Z,98.20
2019-01-09T22:10:27.448Z,98.70
2019-01-09T22:12:56.098Z,98.90
2019-01-09T22:15:24.729Z,98.70
2019-01-09T22:17:53.025Z,98.80
2019-01-09T22:20:21.315Z,98.90
2019-01-09T22:22:52.358Z,98.80
2019-01-09T22:25:21.226Z,99.80
2019-01-09T22:27:49.961Z,99.90
2019-01-09T22:30:22.122Z,99.90
2019-01-09T22:32:50.682Z,98.20
2019-01-09T22:35:18.834Z,97.80
2019-01-09T22:37:47.200Z,98.50
2019-01-09T22:40:17.985Z,99.00
2019-01-09T22:42:48.526Z,97.50
2019-01-09T22:45:17.247Z,96.80
2019-01-09T22:47:46.642Z,96.10
2019-01-09T22:50:20.563Z,97.00
2019-01-09T22:52:49.008Z,96.90
2019-01-09T22:55:17.151Z,97.00
2019-01-09T22:57:45.572Z,97.20
2019-01-09T23:00:45.171Z,97.00
2019-01-09T23:03:14.302Z,97.40
2019-01-09T23:05:42.689Z,97.70
2019-01-09T23:08:10.755Z,98.60
2019-01-09T23:10:38.998Z,98.40
2019-01-09T23:13:07.376Z,97.90
2019-01-09T23:15:35.784Z,97.80
2019-01-09T23:18:04.824Z,98.30
2019-01-09T23:20:32.907Z,98.10
2019-01-09T23:23:02.457Z,98.00
2019-01-09T23:25:30.730Z,98.10
2019-01-09T23:27:59.041Z,98.40
2019-01-09T23:30:27.579Z,98.10
2019-01-09T23:32:55.863Z,98.70
2019-01-09T23:35:24.258Z,98.30
2019-01-09T23:37:52.557Z,97.60
2019-01-09T23:40:20.823Z,97.40
2019-01-09T23:42:48.933Z,97.70
2019-01-09T23:45:17.182Z,97.60
2019-01-09T23:47:45.632Z,97.40
2019-01-09T23:50:14.031Z,97.60
2019-01-09T23:52:42.167Z,97.60
2019-01-09T23:55:11.223Z,96.90
2019-01-09T23:57:39.575Z,96.80
